Main page
METAR-TAF:

Airports :

Longyearbyen, Longyear,

Svalbard Airport

latitude: Norway, longitude: 78-15N, elevation: 015-28E m

Current weather observation

The report was made 55 minutes ago, at 22:50 UTC
Wind 15 kt from the Southeast
Temperature -2°C
Humidity 69%
Pressure 1021 hPa
Visibility 10 km or more
Scattered clouds at a height of 3000 ft
Broken clouds at a height of 6000 ft

METAR: ENSB 052250Z 14015KT 9999 SCT030 BKN060 M02/M07 Q1021 RMK WIND 1400FT 12017KT

Time: 23:45 (23:45 UTC)

Forecast

Forecast valid from 05 at 18 UTC to 06 at 18 UTC
Wind 12 kt from the Southeast
Visibility 10 km or more
Few clouds at a height of 2000 ft
Broken clouds at a height of 4000 ft
Temporary
from 05 at 18 UTC to 06 at 18 UTC
Wind 22 kt from the East/Southeast

TAF: ENSB 0518/0618 13012KT 9999 FEW020 BKN040 TEMPO 0518/0618 12022KT

METAR-TAF

Weather observations and forecasts of more than 4000 airports (METAR and TAF reports).

The available stations are represented by yellow and red dots on the map.

Hover mouse over dot to see the name of the station.

Then click to see weather observations and forecasts.

To change the map : click on the green buttons with a black cross to zoom in, on the green button with a dash to zoom out, or on the green arrows for adjacent maps.


METAR-TAF: